sensor_id;sensor_type;location;lat;lon;timestamp;P1;durP1;ratioP1;P2;durP2;ratioP2
48623;SDS011;34422;45.802;16.114;2023-11-21T00:01:06;76.25;;;66.75;;
48623;SDS011;34422;45.802;16.114;2023-11-21T00:03:35;116.85;;;106.78;;
48623;SDS011;34422;45.802;16.114;2023-11-21T00:06:02;125.32;;;115.55;;
48623;SDS011;34422;45.802;16.114;2023-11-21T00:08:29;114.85;;;105.45;;
48623;SDS011;34422;45.802;16.114;2023-11-21T00:10:57;91.57;;;83.47;;
48623;SDS011;34422;45.802;16.114;2023-11-21T00:13:26;73.18;;;65.28;;
48623;SDS011;34422;45.802;16.114;2023-11-21T00:15:53;93.47;;;85.55;;
48623;SDS011;34422;45.802;16.114;2023-11-21T00:18:20;80.47;;;72.60;;
48623;SDS011;34422;45.802;16.114;2023-11-21T00:20:47;105.07;;;96.53;;
48623;SDS011;34422;45.802;16.114;2023-11-21T00:23:14;67.35;;;60.90;;
48623;SDS011;34422;45.802;16.114;2023-11-21T00:25:41;106.35;;;97.68;;
48623;SDS011;34422;45.802;16.114;2023-11-21T00:28:08;100.40;;;92.18;;
48623;SDS011;34422;45.802;16.114;2023-11-21T00:30:35;75.85;;;68.18;;
48623;SDS011;34422;45.802;16.114;2023-11-21T00:33:01;88.97;;;81.13;;
48623;SDS011;34422;45.802;16.114;2023-11-21T00:35:28;89.50;;;81.88;;
48623;SDS011;34422;45.802;16.114;2023-11-21T00:37:55;68.95;;;61.08;;
48623;SDS011;34422;45.802;16.114;2023-11-21T00:40:22;91.68;;;84.18;;
48623;SDS011;34422;45.802;16.114;2023-11-21T00:42:49;85.63;;;77.93;;
48623;SDS011;34422;45.802;16.114;2023-11-21T00:45:16;70.93;;;63.83;;
48623;SDS011;34422;45.802;16.114;2023-11-21T00:47:43;99.90;;;91.65;;
48623;SDS011;34422;45.802;16.114;2023-11-21T00:50:09;109.80;;;100.82;;
48623;SDS011;34422;45.802;16.114;2023-11-21T00:52:36;70.47;;;63.25;;
48623;SDS011;34422;45.802;16.114;2023-11-21T00:55:04;74.53;;;67.45;;
48623;SDS011;34422;45.802;16.114;2023-11-21T00:57:34;83.95;;;76.40;;
48623;SDS011;34422;45.802;16.114;2023-11-21T01:00:01;89.85;;;81.35;;
48623;SDS011;34422;45.802;16.114;2023-11-21T01:02:34;108.93;;;99.65;;
48623;SDS011;34422;45.802;16.114;2023-11-21T01:05:02;124.63;;;113.90;;
48623;SDS011;34422;45.802;16.114;2023-11-21T01:07:30;76.85;;;68.72;;
48623;SDS011;34422;45.802;16.114;2023-11-21T01:09:57;115.20;;;105.35;;
48623;SDS011;34422;45.802;16.114;2023-11-21T01:12:24;86.70;;;77.63;;
48623;SDS011;34422;45.802;16.114;2023-11-21T01:14:51;77.32;;;67.95;;
48623;SDS011;34422;45.802;16.114;2023-11-21T01:17:18;74.30;;;65.95;;
48623;SDS011;34422;45.802;16.114;2023-11-21T01:19:45;125.97;;;114.45;;
48623;SDS011;34422;45.802;16.114;2023-11-21T01:22:12;116.40;;;105.75;;
48623;SDS011;34422;45.802;16.114;2023-11-21T01:24:39;87.40;;;78.07;;
48623;SDS011;34422;45.802;16.114;2023-11-21T01:27:06;107.32;;;97.25;;
48623;SDS011;34422;45.802;16.114;2023-11-21T01:29:33;119.30;;;109.18;;
48623;SDS011;34422;45.802;16.114;2023-11-21T01:32:02;152.95;;;140.15;;
48623;SDS011;34422;45.802;16.114;2023-11-21T01:34:30;124.28;;;113.00;;
48623;SDS011;34422;45.802;16.114;2023-11-21T01:36:57;88.95;;;76.15;;
48623;SDS011;34422;45.802;16.114;2023-11-21T01:39:24;109.60;;;99.45;;
48623;SDS011;34422;45.802;16.114;2023-11-21T01:41:52;84.85;;;76.03;;
48623;SDS011;34422;45.802;16.114;2023-11-21T01:44:19;98.55;;;89.43;;
48623;SDS011;34422;45.802;16.114;2023-11-21T01:46:46;89.40;;;80.10;;
48623;SDS011;34422;45.802;16.114;2023-11-21T01:49:14;115.10;;;104.65;;
48623;SDS011;34422;45.802;16.114;2023-11-21T01:51:43;93.85;;;84.55;;
48623;SDS011;34422;45.802;16.114;2023-11-21T01:54:13;87.43;;;78.20;;
48623;SDS011;34422;45.802;16.114;2023-11-21T01:56:40;114.60;;;104.38;;
48623;SDS011;34422;45.802;16.114;2023-11-21T01:59:07;81.07;;;68.28;;
48623;SDS011;34422;45.802;16.114;2023-11-21T02:01:34;73.78;;;61.67;;
48623;SDS011;34422;45.802;16.114;2023-11-21T02:04:01;91.95;;;82.22;;
48623;SDS011;34422;45.802;16.114;2023-11-21T02:06:28;78.40;;;67.13;;
48623;SDS011;34422;45.802;16.114;2023-11-21T02:08:57;83.32;;;68.47;;
48623;SDS011;34422;45.802;16.114;2023-11-21T02:11:26;74.63;;;58.13;;
48623;SDS011;34422;45.802;16.114;2023-11-21T02:13:56;92.60;;;83.20;;
48623;SDS011;34422;45.802;16.114;2023-11-21T02:16:27;101.40;;;92.03;;
48623;SDS011;34422;45.802;16.114;2023-11-21T02:18:59;81.20;;;65.88;;
48623;SDS011;34422;45.802;16.114;2023-11-21T02:21:27;83.65;;;65.70;;
48623;SDS011;34422;45.802;16.114;2023-11-21T02:23:55;82.82;;;64.78;;
48623;SDS011;34422;45.802;16.114;2023-11-21T02:26:22;80.80;;;66.00;;
48623;SDS011;34422;45.802;16.114;2023-11-21T02:28:49;86.45;;;74.43;;
48623;SDS011;34422;45.802;16.114;2023-11-21T02:31:16;79.50;;;67.80;;
48623;SDS011;34422;45.802;16.114;2023-11-21T02:33:43;92.55;;;83.30;;
48623;SDS011;34422;45.802;16.114;2023-11-21T02:36:10;72.80;;;64.85;;
48623;SDS011;34422;45.802;16.114;2023-11-21T02:38:37;68.13;;;57.05;;
48623;SDS011;34422;45.802;16.114;2023-11-21T02:41:04;90.95;;;82.30;;
48623;SDS011;34422;45.802;16.114;2023-11-21T02:43:31;72.53;;;61.80;;
48623;SDS011;34422;45.802;16.114;2023-11-21T02:45:58;90.05;;;81.45;;
48623;SDS011;34422;45.802;16.114;2023-11-21T02:48:25;66.88;;;54.63;;
48623;SDS011;34422;45.802;16.114;2023-11-21T02:50:52;65.28;;;52.40;;
48623;SDS011;34422;45.802;16.114;2023-11-21T02:53:19;71.30;;;53.83;;
48623;SDS011;34422;45.802;16.114;2023-11-21T02:55:46;66.15;;;56.97;;
48623;SDS011;34422;45.802;16.114;2023-11-21T02:58:13;72.80;;;64.22;;
48623;SDS011;34422;45.802;16.114;2023-11-21T03:00:40;70.28;;;63.22;;
48623;SDS011;34422;45.802;16.114;2023-11-21T03:03:09;76.72;;;69.80;;
48623;SDS011;34422;45.802;16.114;2023-11-21T03:05:35;79.10;;;71.50;;
48623;SDS011;34422;45.802;16.114;2023-11-21T03:08:03;58.08;;;48.83;;
48623;SDS011;34422;45.802;16.114;2023-11-21T03:10:30;62.95;;;47.78;;
48623;SDS011;34422;45.802;16.114;2023-11-21T03:12:57;91.03;;;82.50;;
48623;SDS011;34422;45.802;16.114;2023-11-21T03:15:24;58.10;;;45.67;;
48623;SDS011;34422;45.802;16.114;2023-11-21T03:17:51;73.45;;;66.40;;
48623;SDS011;34422;45.802;16.114;2023-11-21T03:20:18;58.55;;;50.08;;
48623;SDS011;34422;45.802;16.114;2023-11-21T03:22:45;65.45;;;58.58;;
48623;SDS011;34422;45.802;16.114;2023-11-21T03:25:12;58.92;;;45.05;;
48623;SDS011;34422;45.802;16.114;2023-11-21T03:27:39;59.88;;;49.13;;
48623;SDS011;34422;45.802;16.114;2023-11-21T03:30:07;60.40;;;43.25;;
48623;SDS011;34422;45.802;16.114;2023-11-21T03:32:35;58.97;;;43.28;;
48623;SDS011;34422;45.802;16.114;2023-11-21T03:35:02;56.55;;;44.42;;
48623;SDS011;34422;45.802;16.114;2023-11-21T03:37:30;53.45;;;45.05;;
48623;SDS011;34422;45.802;16.114;2023-11-21T03:39:57;65.60;;;58.60;;
48623;SDS011;34422;45.802;16.114;2023-11-21T03:42:24;61.67;;;55.13;;
48623;SDS011;34422;45.802;16.114;2023-11-21T03:44:54;58.17;;;47.30;;
48623;SDS011;34422;45.802;16.114;2023-11-21T03:47:21;59.15;;;46.42;;
48623;SDS011;34422;45.802;16.114;2023-11-21T03:49:48;59.00;;;52.63;;
48623;SDS011;34422;45.802;16.114;2023-11-21T03:52:15;54.13;;;42.38;;
48623;SDS011;34422;45.802;16.114;2023-11-21T03:54:42;58.08;;;43.75;;
48623;SDS011;34422;45.802;16.114;2023-11-21T03:57:09;60.20;;;44.10;;
48623;SDS011;34422;45.802;16.114;2023-11-21T03:59:39;56.83;;;44.08;;
48623;SDS011;34422;45.802;16.114;2023-11-21T04:02:07;58.67;;;44.90;;
48623;SDS011;34422;45.802;16.114;2023-11-21T04:04:35;54.05;;;44.67;;
48623;SDS011;34422;45.802;16.114;2023-11-21T04:07:02;51.72;;;43.67;;
48623;SDS011;34422;45.802;16.114;2023-11-21T04:09:29;61.47;;;54.63;;
48623;SDS011;34422;45.802;16.114;2023-11-21T04:11:56;56.78;;;50.58;;
48623;SDS011;34422;45.802;16.114;2023-11-21T04:14:23;54.08;;;42.90;;
48623;SDS011;34422;45.802;16.114;2023-11-21T04:16:50;52.08;;;41.00;;
48623;SDS011;34422;45.802;16.114;2023-11-21T04:19:17;51.63;;;43.22;;
48623;SDS011;34422;45.802;16.114;2023-11-21T04:21:44;46.42;;;39.78;;
48623;SDS011;34422;45.802;16.114;2023-11-21T04:24:11;49.28;;;39.72;;
48623;SDS011;34422;45.802;16.114;2023-11-21T04:26:38;61.95;;;55.55;;
48623;SDS011;34422;45.802;16.114;2023-11-21T04:29:05;47.85;;;37.45;;
48623;SDS011;34422;45.802;16.114;2023-11-21T04:31:32;51.42;;;41.72;;
48623;SDS011;34422;45.802;16.114;2023-11-21T04:33:59;47.83;;;38.55;;
48623;SDS011;34422;45.802;16.114;2023-11-21T04:36:25;51.03;;;41.38;;
48623;SDS011;34422;45.802;16.114;2023-11-21T04:38:52;48.70;;;42.80;;
48623;SDS011;34422;45.802;16.114;2023-11-21T04:41:19;43.40;;;37.03;;
48623;SDS011;34422;45.802;16.114;2023-11-21T04:43:46;46.55;;;36.08;;
48623;SDS011;34422;45.802;16.114;2023-11-21T04:46:13;49.20;;;43.90;;
48623;SDS011;34422;45.802;16.114;2023-11-21T04:48:40;52.55;;;37.53;;
48623;SDS011;34422;45.802;16.114;2023-11-21T04:51:07;63.58;;;46.40;;
48623;SDS011;34422;45.802;16.114;2023-11-21T04:53:34;53.28;;;39.10;;
48623;SDS011;34422;45.802;16.114;2023-11-21T04:56:01;63.30;;;49.88;;
48623;SDS011;34422;45.802;16.114;2023-11-21T04:58:29;52.35;;;41.55;;
48623;SDS011;34422;45.802;16.114;2023-11-21T05:00:57;47.47;;;35.53;;
48623;SDS011;34422;45.802;16.114;2023-11-21T05:03:24;51.90;;;45.33;;
48623;SDS011;34422;45.802;16.114;2023-11-21T05:05:51;51.55;;;39.05;;
48623;SDS011;34422;45.802;16.114;2023-11-21T05:08:18;56.33;;;40.35;;
48623;SDS011;34422;45.802;16.114;2023-11-21T05:10:47;60.70;;;53.85;;
48623;SDS011;34422;45.802;16.114;2023-11-21T05:13:14;58.67;;;45.65;;
48623;SDS011;34422;45.802;16.114;2023-11-21T05:15:44;54.25;;;41.35;;
48623;SDS011;34422;45.802;16.114;2023-11-21T05:18:11;51.92;;;39.20;;
48623;SDS011;34422;45.802;16.114;2023-11-21T05:20:40;52.20;;;40.97;;
48623;SDS011;34422;45.802;16.114;2023-11-21T05:23:07;50.15;;;41.28;;
48623;SDS011;34422;45.802;16.114;2023-11-21T05:25:34;57.95;;;46.13;;
48623;SDS011;34422;45.802;16.114;2023-11-21T05:28:02;60.33;;;44.85;;
48623;SDS011;34422;45.802;16.114;2023-11-21T05:30:29;64.20;;;45.67;;
48623;SDS011;34422;45.802;16.114;2023-11-21T05:32:56;61.58;;;42.38;;
48623;SDS011;34422;45.802;16.114;2023-11-21T05:35:23;62.42;;;55.83;;
48623;SDS011;34422;45.802;16.114;2023-11-21T05:37:50;65.88;;;58.67;;
48623;SDS011;34422;45.802;16.114;2023-11-21T05:40:17;66.85;;;59.53;;
48623;SDS011;34422;45.802;16.114;2023-11-21T05:42:44;65.20;;;55.33;;
48623;SDS011;34422;45.802;16.114;2023-11-21T05:45:11;58.17;;;41.60;;
48623;SDS011;34422;45.802;16.114;2023-11-21T05:47:41;61.13;;;42.33;;
48623;SDS011;34422;45.802;16.114;2023-11-21T05:50:12;69.90;;;60.33;;
48623;SDS011;34422;45.802;16.114;2023-11-21T05:52:44;59.28;;;40.05;;
48623;SDS011;34422;45.802;16.114;2023-11-21T05:55:12;58.60;;;40.83;;
48623;SDS011;34422;45.802;16.114;2023-11-21T05:57:40;57.50;;;44.15;;
48623;SDS011;34422;45.802;16.114;2023-11-21T06:00:09;57.45;;;42.25;;
48623;SDS011;34422;45.802;16.114;2023-11-21T06:02:39;59.35;;;48.33;;
48623;SDS011;34422;45.802;16.114;2023-11-21T06:05:07;60.60;;;48.53;;
48623;SDS011;34422;45.802;16.114;2023-11-21T06:07:35;64.45;;;42.92;;
48623;SDS011;34422;45.802;16.114;2023-11-21T06:10:04;52.85;;;39.35;;
48623;SDS011;34422;45.802;16.114;2023-11-21T06:12:35;53.17;;;37.92;;
48623;SDS011;34422;45.802;16.114;2023-11-21T06:15:03;72.53;;;65.28;;
48623;SDS011;34422;45.802;16.114;2023-11-21T06:17:31;56.38;;;43.47;;
48623;SDS011;34422;45.802;16.114;2023-11-21T06:19:58;52.38;;;40.60;;
48623;SDS011;34422;45.802;16.114;2023-11-21T06:22:25;54.60;;;38.20;;
48623;SDS011;34422;45.802;16.114;2023-11-21T06:24:52;61.28;;;53.72;;
48623;SDS011;34422;45.802;16.114;2023-11-21T06:27:19;65.85;;;50.75;;
48623;SDS011;34422;45.802;16.114;2023-11-21T06:29:46;62.35;;;41.80;;
48623;SDS011;34422;45.802;16.114;2023-11-21T06:32:13;56.58;;;41.78;;
48623;SDS011;34422;45.802;16.114;2023-11-21T06:34:42;54.17;;;41.53;;
48623;SDS011;34422;45.802;16.114;2023-11-21T06:37:09;59.00;;;47.80;;
48623;SDS011;34422;45.802;16.114;2023-11-21T06:39:37;57.00;;;44.88;;
48623;SDS011;34422;45.802;16.114;2023-11-21T06:42:05;60.10;;;41.80;;
48623;SDS011;34422;45.802;16.114;2023-11-21T06:44:32;57.00;;;49.85;;
48623;SDS011;34422;45.802;16.114;2023-11-21T06:47:00;57.65;;;39.97;;
48623;SDS011;34422;45.802;16.114;2023-11-21T06:49:26;51.42;;;41.35;;
48623;SDS011;34422;45.802;16.114;2023-11-21T06:51:53;83.00;;;75.68;;
48623;SDS011;34422;45.802;16.114;2023-11-21T06:54:21;54.72;;;48.90;;
48623;SDS011;34422;45.802;16.114;2023-11-21T06:56:49;46.35;;;35.97;;
48623;SDS011;34422;45.802;16.114;2023-11-21T06:59:16;48.10;;;38.75;;
48623;SDS011;34422;45.802;16.114;2023-11-21T07:01:43;60.45;;;54.45;;
48623;SDS011;34422;45.802;16.114;2023-11-21T07:04:10;42.03;;;36.53;;
48623;SDS011;34422;45.802;16.114;2023-11-21T07:06:37;49.92;;;45.03;;
48623;SDS011;34422;45.802;16.114;2023-11-21T07:09:12;71.93;;;66.25;;
48623;SDS011;34422;45.802;16.114;2023-11-21T07:11:39;38.22;;;34.28;;
48623;SDS011;34422;45.802;16.114;2023-11-21T07:14:06;84.18;;;77.15;;
48623;SDS011;34422;45.802;16.114;2023-11-21T07:16:34;53.05;;;48.80;;
48623;SDS011;34422;45.802;16.114;2023-11-21T07:19:06;56.28;;;51.30;;
48623;SDS011;34422;45.802;16.114;2023-11-21T07:21:34;37.85;;;34.42;;
48623;SDS011;34422;45.802;16.114;2023-11-21T07:24:04;31.73;;;28.93;;
48623;SDS011;34422;45.802;16.114;2023-11-21T07:26:32;30.30;;;27.20;;
48623;SDS011;34422;45.802;16.114;2023-11-21T07:29:01;58.50;;;54.38;;
48623;SDS011;34422;45.802;16.114;2023-11-21T07:31:30;50.13;;;46.95;;
48623;SDS011;34422;45.802;16.114;2023-11-21T07:34:00;26.13;;;24.00;;
48623;SDS011;34422;45.802;16.114;2023-11-21T07:36:27;24.70;;;22.75;;
48623;SDS011;34422;45.802;16.114;2023-11-21T07:38:54;26.05;;;24.10;;
48623;SDS011;34422;45.802;16.114;2023-11-21T07:41:21;52.08;;;47.75;;
48623;SDS011;34422;45.802;16.114;2023-11-21T07:43:51;45.97;;;43.33;;
48623;SDS011;34422;45.802;16.114;2023-11-21T07:46:22;33.75;;;31.58;;
48623;SDS011;34422;45.802;16.114;2023-11-21T07:48:52;18.25;;;16.73;;
48623;SDS011;34422;45.802;16.114;2023-11-21T07:51:20;30.80;;;28.73;;
48623;SDS011;34422;45.802;16.114;2023-11-21T07:53:47;25.75;;;24.20;;
48623;SDS011;34422;45.802;16.114;2023-11-21T07:56:16;40.97;;;38.70;;
48623;SDS011;34422;45.802;16.114;2023-11-21T07:58:44;27.92;;;25.95;;
48623;SDS011;34422;45.802;16.114;2023-11-21T08:01:14;60.75;;;57.53;;
48623;SDS011;34422;45.802;16.114;2023-11-21T08:03:41;47.33;;;44.28;;
48623;SDS011;34422;45.802;16.114;2023-11-21T08:06:09;35.92;;;33.85;;
48623;SDS011;34422;45.802;16.114;2023-11-21T08:08:35;23.10;;;21.42;;
48623;SDS011;34422;45.802;16.114;2023-11-21T08:11:05;21.80;;;19.92;;
48623;SDS011;34422;45.802;16.114;2023-11-21T08:13:34;31.88;;;29.70;;
48623;SDS011;34422;45.802;16.114;2023-11-21T08:16:03;15.77;;;14.40;;
48623;SDS011;34422;45.802;16.114;2023-11-21T08:18:43;42.67;;;40.20;;
48623;SDS011;34422;45.802;16.114;2023-11-21T08:21:33;69.13;;;63.17;;
48623;SDS011;34422;45.802;16.114;2023-11-21T08:24:27;18.17;;;17.05;;
48623;SDS011;34422;45.802;16.114;2023-11-21T08:27:08;51.25;;;48.75;;
48623;SDS011;34422;45.802;16.114;2023-11-21T08:30:28;64.25;;;61.35;;
48623;SDS011;34422;45.802;16.114;2023-11-21T08:32:57;32.08;;;30.05;;
48623;SDS011;34422;45.802;16.114;2023-11-21T08:35:25;32.13;;;29.63;;
48623;SDS011;34422;45.802;16.114;2023-11-21T08:37:54;34.83;;;32.58;;
48623;SDS011;34422;45.802;16.114;2023-11-21T08:40:21;26.77;;;25.00;;
48623;SDS011;34422;45.802;16.114;2023-11-21T08:50:34;48.50;;;45.63;;
48623;SDS011;34422;45.802;16.114;2023-11-21T08:53:32;66.40;;;63.15;;
48623;SDS011;34422;45.802;16.114;2023-11-21T08:56:04;44.97;;;42.63;;
48623;SDS011;34422;45.802;16.114;2023-11-21T09:01:46;52.75;;;50.08;;
48623;SDS011;34422;45.802;16.114;2023-11-21T09:13:03;47.15;;;44.80;;
48623;SDS011;34422;45.802;16.114;2023-11-21T09:19:29;44.03;;;41.67;;
48623;SDS011;34422;45.802;16.114;2023-11-21T09:26:24;27.90;;;26.23;;
48623;SDS011;34422;45.802;16.114;2023-11-21T09:28:53;47.17;;;44.72;;
48623;SDS011;34422;45.802;16.114;2023-11-21T09:31:28;38.55;;;36.78;;
48623;SDS011;34422;45.802;16.114;2023-11-21T09:34:06;23.70;;;22.00;;
48623;SDS011;34422;45.802;16.114;2023-11-21T09:39:28;25.65;;;24.08;;
48623;SDS011;34422;45.802;16.114;2023-11-21T09:42:29;42.78;;;40.53;;
48623;SDS011;34422;45.802;16.114;2023-11-21T09:45:39;57.42;;;54.60;;
48623;SDS011;34422;45.802;16.114;2023-11-21T09:48:11;30.65;;;28.85;;
48623;SDS011;34422;45.802;16.114;2023-11-21T09:50:42;57.35;;;54.55;;
48623;SDS011;34422;45.802;16.114;2023-11-21T09:53:18;25.63;;;24.20;;
48623;SDS011;34422;45.802;16.114;2023-11-21T09:56:09;25.48;;;23.90;;
48623;SDS011;34422;45.802;16.114;2023-11-21T09:59:32;34.45;;;32.70;;
48623;SDS011;34422;45.802;16.114;2023-11-21T10:02:07;71.80;;;68.55;;
48623;SDS011;34422;45.802;16.114;2023-11-21T10:07:31;40.58;;;38.42;;
48623;SDS011;34422;45.802;16.114;2023-11-21T10:10:13;27.48;;;25.50;;
48623;SDS011;34422;45.802;16.114;2023-11-21T10:13:18;53.10;;;50.20;;
48623;SDS011;34422;45.802;16.114;2023-11-21T10:16:10;78.30;;;74.68;;
48623;SDS011;34422;45.802;16.114;2023-11-21T10:18:58;43.35;;;41.20;;
48623;SDS011;34422;45.802;16.114;2023-11-21T10:22:29;98.05;;;93.05;;
48623;SDS011;34422;45.802;16.114;2023-11-21T10:29:08;35.35;;;33.20;;
48623;SDS011;34422;45.802;16.114;2023-11-21T10:31:43;35.35;;;33.10;;
48623;SDS011;34422;45.802;16.114;2023-11-21T10:34:16;43.63;;;41.17;;
48623;SDS011;34422;45.802;16.114;2023-11-21T10:36:46;56.80;;;53.85;;
48623;SDS011;34422;45.802;16.114;2023-11-21T10:39:14;55.05;;;52.20;;
48623;SDS011;34422;45.802;16.114;2023-11-21T10:45:38;78.35;;;74.22;;
48623;SDS011;34422;45.802;16.114;2023-11-21T10:48:22;39.50;;;37.25;;
48623;SDS011;34422;45.802;16.114;2023-11-21T11:56:27;72.72;;;69.47;;
48623;SDS011;34422;45.802;16.114;2023-11-21T11:59:04;75.38;;;72.05;;
48623;SDS011;34422;45.802;16.114;2023-11-21T12:01:57;70.68;;;67.43;;
48623;SDS011;34422;45.802;16.114;2023-11-21T12:04:27;93.10;;;89.00;;
48623;SDS011;34422;45.802;16.114;2023-11-21T12:07:01;88.75;;;84.63;;
48623;SDS011;34422;45.802;16.114;2023-11-21T12:09:40;50.50;;;47.50;;
48623;SDS011;34422;45.802;16.114;2023-11-21T12:16:56;54.25;;;51.67;;
48623;SDS011;34422;45.802;16.114;2023-11-21T12:20:05;106.57;;;101.93;;
48623;SDS011;34422;45.802;16.114;2023-11-21T12:25:22;75.07;;;71.68;;
48623;SDS011;34422;45.802;16.114;2023-11-21T12:43:03;138.20;;;132.40;;
48623;SDS011;34422;45.802;16.114;2023-11-21T12:50:03;98.88;;;94.28;;
48623;SDS011;34422;45.802;16.114;2023-11-21T13:00:02;116.57;;;111.93;;
48623;SDS011;34422;45.802;16.114;2023-11-21T13:02:57;66.88;;;63.78;;
48623;SDS011;34422;45.802;16.114;2023-11-21T13:06:48;135.10;;;129.43;;
48623;SDS011;34422;45.802;16.114;2023-11-21T13:09:43;92.28;;;88.28;;
48623;SDS011;34422;45.802;16.114;2023-11-21T13:16:32;53.70;;;51.03;;
48623;SDS011;34422;45.802;16.114;2023-11-21T13:19:15;32.60;;;30.83;;
48623;SDS011;34422;45.802;16.114;2023-11-21T13:21:53;35.03;;;32.97;;
48623;SDS011;34422;45.802;16.114;2023-11-21T13:24:50;28.40;;;26.48;;
48623;SDS011;34422;45.802;16.114;2023-11-21T13:27:30;69.35;;;65.97;;
48623;SDS011;34422;45.802;16.114;2023-11-21T13:30:48;61.70;;;58.47;;
48623;SDS011;34422;45.802;16.114;2023-11-21T13:33:17;72.60;;;69.25;;
48623;SDS011;34422;45.802;16.114;2023-11-21T13:36:14;37.03;;;35.05;;
48623;SDS011;34422;45.802;16.114;2023-11-21T13:50:49;126.82;;;121.55;;
48623;SDS011;34422;45.802;16.114;2023-11-21T13:53:45;38.72;;;36.83;;
48623;SDS011;34422;45.802;16.114;2023-11-21T14:00:18;82.85;;;79.32;;
48623;SDS011;34422;45.802;16.114;2023-11-21T14:03:16;27.67;;;25.85;;
48623;SDS011;34422;45.802;16.114;2023-11-21T14:25:31;77.03;;;72.72;;
48623;SDS011;34422;45.802;16.114;2023-11-21T14:28:06;28.15;;;26.20;;
48623;SDS011;34422;45.802;16.114;2023-11-21T14:33:49;31.90;;;29.85;;
48623;SDS011;34422;45.802;16.114;2023-11-21T14:45:42;83.13;;;79.35;;
48623;SDS011;34422;45.802;16.114;2023-11-21T15:18:17;56.63;;;52.28;;
48623;SDS011;34422;45.802;16.114;2023-11-21T15:30:11;51.60;;;48.42;;
48623;SDS011;34422;45.802;16.114;2023-11-21T15:40:23;53.05;;;49.95;;
48623;SDS011;34422;45.802;16.114;2023-11-21T15:55:09;76.45;;;72.60;;
48623;SDS011;34422;45.802;16.114;2023-11-21T16:05:26;54.85;;;51.30;;
48623;SDS011;34422;45.802;16.114;2023-11-21T16:08:05;29.38;;;27.20;;
48623;SDS011;34422;45.802;16.114;2023-11-21T16:10:55;57.25;;;54.13;;
48623;SDS011;34422;45.802;16.114;2023-11-21T16:13:52;26.15;;;24.20;;
48623;SDS011;34422;45.802;16.114;2023-11-21T16:19:41;31.77;;;29.55;;
48623;SDS011;34422;45.802;16.114;2023-11-21T16:22:21;39.60;;;36.85;;
48623;SDS011;34422;45.802;16.114;2023-11-21T16:24:59;40.58;;;37.40;;
48623;SDS011;34422;45.802;16.114;2023-11-21T16:27:36;33.35;;;30.80;;
48623;SDS011;34422;45.802;16.114;2023-11-21T16:30:20;49.60;;;46.22;;
48623;SDS011;34422;45.802;16.114;2023-11-21T16:32:53;36.70;;;34.33;;
48623;SDS011;34422;45.802;16.114;2023-11-21T16:35:30;31.58;;;28.45;;
48623;SDS011;34422;45.802;16.114;2023-11-21T16:38:03;48.53;;;45.63;;
48623;SDS011;34422;45.802;16.114;2023-11-21T16:43:17;81.00;;;76.13;;
48623;SDS011;34422;45.802;16.114;2023-11-21T16:45:50;58.60;;;54.30;;
48623;SDS011;34422;45.802;16.114;2023-11-21T16:50:55;79.68;;;73.63;;
48623;SDS011;34422;45.802;16.114;2023-11-21T16:53:27;65.88;;;60.42;;
48623;SDS011;34422;45.802;16.114;2023-11-21T16:55:59;61.17;;;56.28;;
48623;SDS011;34422;45.802;16.114;2023-11-21T16:58:33;56.33;;;52.13;;
48623;SDS011;34422;45.802;16.114;2023-11-21T17:01:08;39.55;;;35.78;;
48623;SDS011;34422;45.802;16.114;2023-11-21T17:03:42;47.30;;;43.85;;
48623;SDS011;34422;45.802;16.114;2023-11-21T17:06:14;38.10;;;34.83;;
48623;SDS011;34422;45.802;16.114;2023-11-21T17:08:50;48.60;;;44.88;;
48623;SDS011;34422;45.802;16.114;2023-11-21T17:11:17;40.47;;;37.08;;
48623;SDS011;34422;45.802;16.114;2023-11-21T17:13:46;35.63;;;32.63;;
48623;SDS011;34422;45.802;16.114;2023-11-21T17:16:30;60.20;;;55.95;;
48623;SDS011;34422;45.802;16.114;2023-11-21T17:19:07;37.78;;;34.08;;
48623;SDS011;34422;45.802;16.114;2023-11-21T17:21:46;40.95;;;37.10;;
48623;SDS011;34422;45.802;16.114;2023-11-21T17:24:38;62.42;;;57.83;;
48623;SDS011;34422;45.802;16.114;2023-11-21T17:27:05;46.92;;;43.28;;
48623;SDS011;34422;45.802;16.114;2023-11-21T17:29:45;33.50;;;29.92;;
48623;SDS011;34422;45.802;16.114;2023-11-21T17:32:17;33.33;;;30.15;;
48623;SDS011;34422;45.802;16.114;2023-11-21T17:34:49;33.53;;;30.58;;
48623;SDS011;34422;45.802;16.114;2023-11-21T17:37:17;38.33;;;33.70;;
48623;SDS011;34422;45.802;16.114;2023-11-21T17:46:49;53.80;;;49.80;;
48623;SDS011;34422;45.802;16.114;2023-11-21T17:53:10;52.35;;;48.13;;
48623;SDS011;34422;45.802;16.114;2023-11-21T17:55:44;48.53;;;44.40;;
48623;SDS011;34422;45.802;16.114;2023-11-21T18:14:59;68.80;;;64.97;;
48623;SDS011;34422;45.802;16.114;2023-11-21T18:22:57;92.60;;;87.68;;
48623;SDS011;34422;45.802;16.114;2023-11-21T18:30:04;107.75;;;102.35;;
48623;SDS011;34422;45.802;16.114;2023-11-21T18:41:43;106.13;;;100.38;;
48623;SDS011;34422;45.802;16.114;2023-11-21T18:49:01;114.97;;;108.82;;
48623;SDS011;34422;45.802;16.114;2023-11-21T18:55:57;197.68;;;188.98;;
48623;SDS011;34422;45.802;16.114;2023-11-21T18:59:33;128.48;;;122.28;;
48623;SDS011;34422;45.802;16.114;2023-11-21T19:05:44;76.20;;;72.30;;
48623;SDS011;34422;45.802;16.114;2023-11-21T19:08:28;53.80;;;50.35;;
48623;SDS011;34422;45.802;16.114;2023-11-21T19:10:58;56.72;;;53.25;;
48623;SDS011;34422;45.802;16.114;2023-11-21T19:13:30;60.92;;;57.35;;
48623;SDS011;34422;45.802;16.114;2023-11-21T19:16:17;61.08;;;57.25;;
48623;SDS011;34422;45.802;16.114;2023-11-21T19:22:50;98.07;;;92.65;;
48623;SDS011;34422;45.802;16.114;2023-11-21T19:42:24;61.20;;;57.35;;
48623;SDS011;34422;45.802;16.114;2023-11-21T20:14:10;96.47;;;91.18;;
48623;SDS011;34422;45.802;16.114;2023-11-21T20:28:42;176.48;;;168.15;;
48623;SDS011;34422;45.802;16.114;2023-11-21T20:35:38;115.00;;;108.80;;
48623;SDS011;34422;45.802;16.114;2023-11-21T20:38:59;76.45;;;71.90;;
48623;SDS011;34422;45.802;16.114;2023-11-21T20:42:02;123.22;;;116.60;;
48623;SDS011;34422;45.802;16.114;2023-11-21T20:45:01;111.32;;;104.95;;
48623;SDS011;34422;45.802;16.114;2023-11-21T20:51:25;106.18;;;100.25;;
48623;SDS011;34422;45.802;16.114;2023-11-21T20:54:27;99.35;;;93.88;;
48623;SDS011;34422;45.802;16.114;2023-11-21T20:57:28;117.18;;;110.88;;
48623;SDS011;34422;45.802;16.114;2023-11-21T21:00:19;64.63;;;60.25;;
48623;SDS011;34422;45.802;16.114;2023-11-21T21:17:42;96.57;;;90.68;;
48623;SDS011;34422;45.802;16.114;2023-11-21T21:25:12;156.13;;;147.90;;
48623;SDS011;34422;45.802;16.114;2023-11-21T21:31:32;125.40;;;119.00;;
48623;SDS011;34422;45.802;16.114;2023-11-21T21:34:52;159.60;;;152.15;;
48623;SDS011;34422;45.802;16.114;2023-11-21T21:37:47;126.20;;;119.80;;
48623;SDS011;34422;45.802;16.114;2023-11-21T21:40:47;176.63;;;168.82;;
48623;SDS011;34422;45.802;16.114;2023-11-21T21:43:25;95.32;;;90.68;;